Main page
METAR-TAF:

METAR-TAF

Airports :

West Michigan Regional Airport

Holland, Michigan, United States

latitude: 42-44-46N, longitude: 086-05-48W, elevation: 686 ft

Current weather observation

The report was made 1 hour and 3 minutes ago, at 18:53 UTC
Wind 13 mph from the West with gusts up to 21 mph
Temperature 45°F
Humidity 66%
Pressure 30.27 in. Hg
Visibility: 10 miles
Broken clouds at a height of 3700 ft

METAR: KBIV 241853Z AUTO 28011G18KT 10SM BKN037 07/01 A3027 RMK AO2 SLP257 T00720006

Time: 15:56 (19:56 UTC)


TAF: missing

Weather observations and forecasts of more than 4000 airports (METAR and TAF reports).

The available stations are represented by yellow and red dots on the map.

Hover mouse over dot to see the name of the station.

Then click to see weather observations and forecasts.

To change the map : click on the green buttons with a black cross to zoom in, on the green button with a dash to zoom out, or on the green arrows for adjacent maps.


METAR-TAF: